Time;durP1;ratioP1;P1;durP2;ratioP2;P2;SDS_P1;SDS_P2;PMS_P1;PMS_P2;Temp;Humidity;BMP_temperature;BMP_pressure;BME280_temperature;BME280_humidity;BME280_pressure;Samples;Min_cycle;Max_cycle;Signal;HPM_P1;HPM_P2
2023/12/07 00:01:09;;;;;;;;;;;;;;;-0.67;100.00;98917.73;135889;1273;22501;-69
2023/12/07 00:04:12;;;;;;;;;;;;;;;-0.65;100.00;98916.83;135879;1274;22513;-69
2023/12/07 00:07:14;;;;;;;;;;;;;;;-0.58;100.00;98917.77;135918;1273;22980;-69
2023/12/07 00:10:17;;;;;;;;;;;;;;;-0.49;100.00;98917.98;135856;1274;22530;-68
2023/12/07 00:13:20;;;;;;;;;;;;;;;-0.42;100.00;98922.17;136002;1274;25204;-70
2023/12/07 00:16:22;;;;;;;;;;;;;;;-0.41;100.00;98920.96;135959;1264;22510;-70
2023/12/07 00:19:25;;;;;;;;;;;;;;;-0.32;100.00;98922.38;135954;1274;22504;-70
2023/12/07 00:22:28;;;;;;;;;;;;;;;-0.29;100.00;98925.09;136019;1273;24377;-69
2023/12/07 00:25:31;;;;;;;;;;;;;;;-0.25;100.00;98924.34;136018;1274;22569;-68
2023/12/07 00:28:33;;;;;;;;;;;;;;;-0.24;100.00;98926.04;136006;1275;22514;-69
2023/12/07 00:31:36;;;;;;;;;;;;;;;-0.22;100.00;98923.92;136035;1274;24272;-70
2023/12/07 00:34:41;;;;;;;;;;;;;;;-0.47;100.00;98919.51;135999;1274;22527;-69
2023/12/07 00:37:44;;;;;;;;;;;;;;;-0.48;100.00;98923.48;136063;1274;22510;-69
2023/12/07 00:40:46;;;;;;;;;;;;;;;-0.46;100.00;98921.03;135999;1274;22495;-69
2023/12/07 00:43:49;;;;;;;;;;;;;;;-0.44;100.00;98921.70;136026;1274;22515;-69
2023/12/07 00:46:51;;;;;;;;;;;;;;;-0.39;100.00;98922.48;136025;1274;24361;-69
2023/12/07 00:49:54;;;;;;;;;;;;;;;-0.32;100.00;98924.44;136004;1275;25254;-70
2023/12/07 00:52:57;;;;;;;;;;;;;;;-0.31;100.00;98927.17;136018;1274;22643;-69
2023/12/07 00:55:59;;;;;;;;;;;;;;;-0.24;100.00;98931.19;136042;1274;22501;-70
2023/12/07 00:59:02;;;;;;;;;;;;;;;-0.03;100.00;98932.92;136047;1274;24575;-69
2023/12/07 01:02:04;;;;;;;;;;;;;;;0.08;100.00;98929.48;136071;1274;22533;-70
2023/12/07 01:05:08;;;;;;;;;;;;;;;0.15;100.00;98930.23;136085;1273;22532;-71
2023/12/07 01:08:11;;;;;;;;;;;;;;;0.10;100.00;98929.45;136050;1274;23289;-69
2023/12/07 01:11:14;;;;;;;;;;;;;;;-0.04;100.00;98931.39;136016;1274;22616;-70
2023/12/07 01:14:16;;;;;;;;;;;;;;;-0.02;100.00;98929.81;136039;1274;22516;-70
2023/12/07 01:17:19;;;;;;;;;;;;;;;0.00;100.00;98935.29;136013;1273;23016;-70
2023/12/07 01:20:22;;;;;;;;;;;;;;;-0.06;100.00;98937.27;136003;1255;22520;-70
2023/12/07 01:23:24;;;;;;;;;;;;;;;-0.12;100.00;98937.70;136027;1274;22525;-69
2023/12/07 01:26:27;;;;;;;;;;;;;;;-0.13;100.00;98940.46;136085;1274;22552;-69
2023/12/07 01:29:29;;;;;;;;;;;;;;;-0.13;100.00;98938.92;135921;1274;22511;-69
2023/12/07 01:32:32;;;;;;;;;;;;;;;-0.05;100.00;98932.60;135872;1274;24196;-69
2023/12/07 01:35:35;;;;;;;;;;;;;;;0.00;100.00;98928.73;135966;1274;22525;-70
2023/12/07 01:38:37;;;;;;;;;;;;;;;-0.13;100.00;98929.48;135900;1274;22500;-71
2023/12/07 01:41:40;;;;;;;;;;;;;;;-0.11;100.00;98928.75;135921;1256;24224;-70
2023/12/07 01:44:42;;;;;;;;;;;;;;;-0.05;100.00;98928.65;135940;1274;25459;-68
2023/12/07 01:47:45;;;;;;;;;;;;;;;-0.08;100.00;98923.73;135881;1273;22507;-69
2023/12/07 01:50:47;;;;;;;;;;;;;;;-0.11;100.00;98922.73;135876;1273;22511;-70
2023/12/07 01:53:50;;;;;;;;;;;;;;;-0.17;100.00;98925.23;135810;1274;22768;-69
2023/12/07 01:56:53;;;;;;;;;;;;;;;-0.25;100.00;98922.80;135850;1273;22509;-69
2023/12/07 01:59:55;;;;;;;;;;;;;;;-0.18;100.00;98928.17;135922;1274;22504;-69
2023/12/07 02:02:58;;;;;;;;;;;;;;;-0.15;100.00;98926.92;135878;1274;25394;-70
2023/12/07 02:06:00;;;;;;;;;;;;;;;-0.17;100.00;98926.09;135866;1274;22548;-70
2023/12/07 02:09:03;;;;;;;;;;;;;;;-0.08;100.00;98930.08;135846;1273;22512;-70
2023/12/07 02:12:09;;;;;;;;;;;;;;;-0.08;100.00;98930.75;135864;1273;22504;-69
2023/12/07 02:15:12;;;;;;;;;;;;;;;-0.05;100.00;98932.27;135904;1273;22498;-70
2023/12/07 02:18:14;;;;;;;;;;;;;;;0.03;100.00;98935.23;135899;1273;22500;-70
2023/12/07 02:21:17;;;;;;;;;;;;;;;0.06;100.00;98934.66;135909;1273;22538;-69
2023/12/07 02:24:20;;;;;;;;;;;;;;;0.09;100.00;98939.27;135983;1273;22497;-70
2023/12/07 02:27:22;;;;;;;;;;;;;;;0.11;100.00;98943.70;135960;1274;22533;-70
2023/12/07 02:30:25;;;;;;;;;;;;;;;0.14;100.00;98946.23;135979;1273;22508;-70
2023/12/07 02:33:27;;;;;;;;;;;;;;;0.09;100.00;98948.71;135985;1274;22532;-71
2023/12/07 02:36:30;;;;;;;;;;;;;;;0.03;100.00;98953.47;135976;1273;22507;-70
2023/12/07 02:39:33;;;;;;;;;;;;;;;0.05;100.00;98952.75;136060;1274;22511;-70
2023/12/07 02:42:36;;;;;;;;;;;;;;;0.10;100.00;98956.79;136006;1274;25328;-69
2023/12/07 02:45:38;;;;;;;;;;;;;;;0.09;100.00;98955.77;135976;1273;22504;-70
2023/12/07 02:48:41;;;;;;;;;;;;;;;0.14;100.00;98960.67;135984;1273;23524;-72
2023/12/07 02:51:43;;;;;;;;;;;;;;;0.19;100.00;98959.40;135952;1273;22500;-70
2023/12/07 02:54:46;;;;;;;;;;;;;;;0.26;100.00;98960.14;135956;1273;22505;-69
2023/12/07 02:57:49;;;;;;;;;;;;;;;0.34;100.00;98964.98;135938;1274;22531;-70
2023/12/07 03:00:51;;;;;;;;;;;;;;;0.38;100.00;98959.94;135973;1257;22508;-69
2023/12/07 03:03:54;;;;;;;;;;;;;;;0.43;100.00;98957.43;135945;1274;22513;-70
2023/12/07 03:06:56;;;;;;;;;;;;;;;0.38;100.00;98961.13;136006;1274;24375;-70
2023/12/07 03:09:59;;;;;;;;;;;;;;;0.30;100.00;98962.14;135978;1274;22501;-70
2023/12/07 03:13:01;;;;;;;;;;;;;;;0.33;100.00;98963.45;135989;1274;22499;-70
2023/12/07 03:16:04;;;;;;;;;;;;;;;0.34;100.00;98964.13;135965;1273;22658;-70
2023/12/07 03:19:06;;;;;;;;;;;;;;;0.36;100.00;98963.58;135928;1273;22527;-70
2023/12/07 03:22:09;;;;;;;;;;;;;;;0.27;100.00;98959.61;135958;1274;22556;-72
2023/12/07 03:25:12;;;;;;;;;;;;;;;0.34;100.00;98962.23;135984;1273;22600;-70
2023/12/07 03:28:14;;;;;;;;;;;;;;;0.47;100.00;98961.84;135966;1251;22521;-69
2023/12/07 03:31:17;;;;;;;;;;;;;;;0.62;100.00;98959.67;135934;1273;22504;-70
2023/12/07 03:34:19;;;;;;;;;;;;;;;0.58;100.00;98958.02;136003;1273;22489;-69
2023/12/07 03:37:22;;;;;;;;;;;;;;;0.63;100.00;98960.86;135995;1273;22616;-69
2023/12/07 03:40:24;;;;;;;;;;;;;;;0.50;100.00;98964.18;135970;1273;25290;-70
2023/12/07 03:43:27;;;;;;;;;;;;;;;0.46;100.00;98967.02;135966;1274;22613;-69
2023/12/07 03:46:29;;;;;;;;;;;;;;;0.43;100.00;98967.23;136015;1274;22527;-70
2023/12/07 03:49:32;;;;;;;;;;;;;;;0.40;100.00;98967.13;136029;1274;22614;-69
2023/12/07 03:52:35;;;;;;;;;;;;;;;0.32;100.00;98974.65;136020;1257;22514;-69
2023/12/07 03:55:38;;;;;;;;;;;;;;;0.22;100.00;98974.32;135942;1274;22618;-70
2023/12/07 03:58:41;;;;;;;;;;;;;;;0.24;100.00;98974.79;135970;1274;23117;-70
2023/12/07 04:01:43;;;;;;;;;;;;;;;0.29;100.00;98979.34;135963;1273;22540;-69
2023/12/07 04:04:46;;;;;;;;;;;;;;;0.35;100.00;98981.32;135989;1274;24546;-69
2023/12/07 04:07:49;;;;;;;;;;;;;;;0.38;100.00;98982.64;136012;1251;22508;-69
2023/12/07 04:10:51;;;;;;;;;;;;;;;0.38;100.00;98990.55;136031;1274;22512;-70
2023/12/07 04:13:54;;;;;;;;;;;;;;;0.41;100.00;98990.33;136026;1273;22536;-70
2023/12/07 04:16:56;;;;;;;;;;;;;;;0.47;100.00;98989.55;136049;1274;22700;-70
2023/12/07 04:19:59;;;;;;;;;;;;;;;0.52;100.00;98988.25;136014;1263;22512;-70
2023/12/07 04:23:01;;;;;;;;;;;;;;;0.58;100.00;98989.52;136024;1274;22533;-70
2023/12/07 04:26:04;;;;;;;;;;;;;;;0.59;100.00;98991.23;136012;1255;22504;-70
2023/12/07 04:29:06;;;;;;;;;;;;;;;0.56;100.00;98989.56;135937;1274;22538;-70
2023/12/07 04:32:09;;;;;;;;;;;;;;;0.57;100.00;98987.80;135998;1273;22490;-70
2023/12/07 04:35:12;;;;;;;;;;;;;;;0.52;100.00;98985.14;136012;1273;23267;-70
2023/12/07 04:38:14;;;;;;;;;;;;;;;0.50;100.00;98987.95;136008;1274;22500;-71
2023/12/07 04:41:17;;;;;;;;;;;;;;;0.57;100.00;98996.42;135936;1273;22500;-69
2023/12/07 04:44:20;;;;;;;;;;;;;;;0.57;100.00;98998.13;136082;1273;22510;-71
2023/12/07 04:47:23;;;;;;;;;;;;;;;0.73;100.00;98998.20;136026;1258;22609;-71
2023/12/07 04:50:26;;;;;;;;;;;;;;;0.72;100.00;98999.09;136054;1274;22553;-69
2023/12/07 04:53:28;;;;;;;;;;;;;;;0.72;100.00;99001.85;136078;1273;22513;-70
2023/12/07 04:56:31;;;;;;;;;;;;;;;0.62;100.00;98995.30;136020;1274;22511;-70
2023/12/07 04:59:33;;;;;;;;;;;;;;;0.60;100.00;98998.78;136044;1273;23857;-69
2023/12/07 05:02:36;;;;;;;;;;;;;;;0.54;100.00;99000.43;136108;1274;22512;-70
2023/12/07 05:05:38;;;;;;;;;;;;;;;0.44;100.00;98999.40;136088;1254;24372;-70
2023/12/07 05:08:43;;;;;;;;;;;;;;;0.44;100.00;98997.33;136074;1254;22504;-70
2023/12/07 05:11:46;;;;;;;;;;;;;;;0.47;100.00;98999.34;136104;1274;22591;-71
2023/12/07 05:14:57;;;;;;;;;;;;;;;0.59;100.00;99001.73;136027;1274;22528;-70
2023/12/07 05:17:59;;;;;;;;;;;;;;;0.65;100.00;99005.73;136119;1273;22572;-70
2023/12/07 05:21:02;;;;;;;;;;;;;;;0.58;100.00;99007.26;136087;1254;22613;-71
2023/12/07 05:24:04;;;;;;;;;;;;;;;0.57;100.00;99010.02;131941;1257;5368674;-71
2023/12/07 05:27:07;;;;;;;;;;;;;;;0.46;100.00;99015.71;136074;1257;23789;-70
2023/12/07 05:30:09;;;;;;;;;;;;;;;0.39;100.00;99022.89;136066;1274;24444;-70
2023/12/07 05:33:12;;;;;;;;;;;;;;;0.47;100.00;99027.90;136051;1273;22517;-71
2023/12/07 05:36:15;;;;;;;;;;;;;;;0.49;100.00;99025.81;136129;1273;22521;-71
2023/12/07 05:39:18;;;;;;;;;;;;;;;0.37;100.00;99028.41;136102;1273;22512;-70
2023/12/07 05:42:21;;;;;;;;;;;;;;;0.39;100.00;99031.84;136147;1257;22494;-71
2023/12/07 05:45:23;;;;;;;;;;;;;;;0.42;100.00;99033.84;136107;1273;22519;-71
2023/12/07 05:48:26;;;;;;;;;;;;;;;0.46;100.00;99031.88;136100;1274;22510;-70
2023/12/07 05:51:28;;;;;;;;;;;;;;;0.50;100.00;99034.22;136063;1273;22545;-69
2023/12/07 05:54:31;;;;;;;;;;;;;;;0.59;100.00;99038.73;136143;1274;22497;-71
2023/12/07 05:57:34;;;;;;;;;;;;;;;0.44;100.00;99039.83;136140;1257;23131;-70
2023/12/07 06:00:37;;;;;;;;;;;;;;;0.29;100.00;99044.03;136112;1273;22501;-70
2023/12/07 06:03:40;;;;;;;;;;;;;;;0.28;100.00;99045.94;136085;1254;22633;-70
2023/12/07 06:06:42;;;;;;;;;;;;;;;0.27;100.00;99050.44;136088;1250;22497;-70
2023/12/07 06:09:45;;;;;;;;;;;;;;;0.39;100.00;99050.94;136088;1274;24237;-69
2023/12/07 06:12:47;;;;;;;;;;;;;;;0.40;100.00;99053.32;136166;1273;22520;-70
2023/12/07 06:15:50;;;;;;;;;;;;;;;0.38;100.00;99055.07;136019;1273;22501;-69
2023/12/07 06:18:53;;;;;;;;;;;;;;;0.31;100.00;99060.50;136080;1273;22507;-71
2023/12/07 06:21:55;;;;;;;;;;;;;;;0.28;100.00;99061.75;136082;1274;22509;-71
2023/12/07 06:24:58;;;;;;;;;;;;;;;0.34;100.00;99066.66;136076;1274;25211;-70
2023/12/07 06:28:00;;;;;;;;;;;;;;;0.40;100.00;99066.73;136043;1273;22508;-69
2023/12/07 06:31:03;;;;;;;;;;;;;;;0.54;100.00;99072.54;136068;1273;22497;-71
2023/12/07 06:34:06;;;;;;;;;;;;;;;0.54;100.00;99071.67;136092;1273;25207;-70
2023/12/07 06:37:10;;;;;;;;;;;;;;;0.63;100.00;99076.17;136062;1273;25727;-70
2023/12/07 06:40:12;;;;;;;;;;;;;;;0.70;100.00;99081.22;136034;1256;24209;-71
2023/12/07 06:43:15;;;;;;;;;;;;;;;0.77;100.00;99079.56;135960;1274;22549;-70
2023/12/07 06:46:18;;;;;;;;;;;;;;;0.82;100.00;99084.64;136002;1274;22539;-71
2023/12/07 06:49:20;;;;;;;;;;;;;;;0.74;100.00;99088.21;135994;1274;22516;-70
2023/12/07 06:52:23;;;;;;;;;;;;;;;0.84;100.00;99092.00;135906;1273;22709;-68
2023/12/07 06:55:25;;;;;;;;;;;;;;;0.93;100.00;99088.40;135992;1273;22493;-71
2023/12/07 06:58:28;;;;;;;;;;;;;;;0.92;100.00;99091.87;135967;1273;22507;-70
2023/12/07 07:01:30;;;;;;;;;;;;;;;0.95;100.00;99090.10;136064;1273;24235;-69
2023/12/07 07:04:33;;;;;;;;;;;;;;;0.93;100.00;99093.40;135991;1274;22505;-70
2023/12/07 07:07:36;;;;;;;;;;;;;;;0.77;100.00;99094.19;135965;1273;24238;-70
2023/12/07 07:10:38;;;;;;;;;;;;;;;0.72;100.00;99097.38;135987;1273;22616;-70
2023/12/07 07:13:41;;;;;;;;;;;;;;;0.68;100.00;99099.49;136005;1274;22526;-69
2023/12/07 07:16:43;;;;;;;;;;;;;;;0.75;100.00;99104.72;136036;1255;24217;-69
2023/12/07 07:19:46;;;;;;;;;;;;;;;0.80;100.00;99105.67;136003;1254;22503;-69
2023/12/07 07:22:49;;;;;;;;;;;;;;;0.77;100.00;99108.98;135973;1273;22556;-70
2023/12/07 07:25:51;;;;;;;;;;;;;;;0.77;100.00;99113.80;135908;1263;22506;-70
2023/12/07 07:28:54;;;;;;;;;;;;;;;0.77;100.00;99118.30;135971;1260;23220;-70
2023/12/07 07:31:57;;;;;;;;;;;;;;;0.81;100.00;99119.79;135968;1273;22500;-70
2023/12/07 07:35:00;;;;;;;;;;;;;;;0.89;100.00;99127.55;135982;1274;23221;-70
2023/12/07 07:38:02;;;;;;;;;;;;;;;1.02;100.00;99126.83;135943;1273;22511;-70
2023/12/07 07:41:05;;;;;;;;;;;;;;;1.15;100.00;99125.41;135955;1273;22530;-70
2023/12/07 07:44:07;;;;;;;;;;;;;;;1.22;100.00;99125.45;135983;1273;24330;-69
2023/12/07 07:47:10;;;;;;;;;;;;;;;1.36;100.00;99121.75;135929;1273;22523;-70
2023/12/07 07:50:13;;;;;;;;;;;;;;;1.59;100.00;99124.23;135967;1274;22518;-69
2023/12/07 07:53:16;;;;;;;;;;;;;;;1.73;100.00;99119.47;135952;1273;22512;-70
2023/12/07 07:56:19;;;;;;;;;;;;;;;1.80;100.00;99121.07;136022;1273;22510;-70
2023/12/07 07:59:21;;;;;;;;;;;;;;;1.89;100.00;99121.73;136002;1273;24343;-71
2023/12/07 08:02:24;;;;;;;;;;;;;;;1.94;100.00;99122.66;136069;1273;22506;-69
2023/12/07 08:05:26;;;;;;;;;;;;;;;2.05;100.00;99118.98;135964;1273;22520;-70
2023/12/07 08:08:29;;;;;;;;;;;;;;;2.07;100.00;99116.86;135996;1273;25214;-72
2023/12/07 08:11:32;;;;;;;;;;;;;;;2.06;100.00;99116.71;136056;1273;22526;-70
2023/12/07 08:14:35;;;;;;;;;;;;;;;2.17;100.00;99117.87;136048;1256;22623;-70
2023/12/07 08:17:38;;;;;;;;;;;;;;;2.24;100.00;99119.58;136067;1273;22524;-70
2023/12/07 08:20:40;;;;;;;;;;;;;;;2.38;100.00;99118.91;136042;1273;22504;-70
2023/12/07 08:23:43;;;;;;;;;;;;;;;2.51;100.00;99121.91;136065;1273;22527;-70
2023/12/07 08:26:46;;;;;;;;;;;;;;;2.61;100.00;99126.52;136090;1273;24180;-70
2023/12/07 08:29:48;;;;;;;;;;;;;;;2.67;100.00;99128.97;136012;1273;22497;-69
2023/12/07 08:32:51;;;;;;;;;;;;;;;2.70;100.00;99131.13;136056;1273;22514;-69
2023/12/07 08:35:55;;;;;;;;;;;;;;;2.76;100.00;99128.92;136084;1254;22679;-70
2023/12/07 08:38:59;;;;;;;;;;;;;;;2.78;100.00;99136.83;136067;1273;22501;-69
2023/12/07 08:42:02;;;;;;;;;;;;;;;2.87;100.00;99136.95;136076;1273;24150;-70
2023/12/07 08:45:04;;;;;;;;;;;;;;;3.06;100.00;99136.83;135986;1273;22537;-70
2023/12/07 08:48:07;;;;;;;;;;;;;;;3.20;100.00;99138.36;136055;1273;22505;-70
2023/12/07 08:51:09;;;;;;;;;;;;;;;3.32;100.00;99140.30;136060;1274;22523;-70
2023/12/07 08:54:12;;;;;;;;;;;;;;;3.51;100.00;99141.36;135971;1273;22530;-70
2023/12/07 08:57:15;;;;;;;;;;;;;;;3.73;100.00;99141.62;136000;1273;22510;-69
2023/12/07 09:00:17;;;;;;;;;;;;;;;3.76;100.00;99144.14;136013;1273;24025;-69
2023/12/07 09:03:20;;;;;;;;;;;;;;;3.93;100.00;99150.56;135996;1273;22495;-69
2023/12/07 09:06:23;;;;;;;;;;;;;;;4.01;100.00;99151.71;136002;1273;22531;-69
2023/12/07 09:09:26;;;;;;;;;;;;;;;4.07;100.00;99154.65;136011;1273;22682;-70
2023/12/07 09:12:28;;;;;;;;;;;;;;;4.14;100.00;99154.13;136000;1273;22520;-70
2023/12/07 09:15:31;;;;;;;;;;;;;;;4.34;100.00;99152.67;136021;1254;24421;-70
2023/12/07 09:18:34;;;;;;;;;;;;;;;4.43;100.00;99156.19;136089;1273;25438;-70
2023/12/07 09:21:37;;;;;;;;;;;;;;;4.53;100.00;99152.63;135999;1254;22513;-69
2023/12/07 09:24:39;;;;;;;;;;;;;;;4.75;100.00;99155.36;135996;1273;22506;-69
2023/12/07 09:27:42;;;;;;;;;;;;;;;5.02;100.00;99151.55;135946;1273;22510;-70
2023/12/07 09:30:45;;;;;;;;;;;;;;;5.04;100.00;99149.60;136010;1274;24756;-72
2023/12/07 09:33:47;;;;;;;;;;;;;;;5.02;100.00;99150.69;135943;1273;23881;-70
2023/12/07 09:36:50;;;;;;;;;;;;;;;5.16;100.00;99154.40;135986;1273;22514;-70
2023/12/07 09:39:52;;;;;;;;;;;;;;;5.18;100.00;99154.67;135993;1273;22587;-70
2023/12/07 09:42:55;;;;;;;;;;;;;;;5.03;100.00;99150.69;135929;1273;22623;-69
2023/12/07 09:45:58;;;;;;;;;;;;;;;5.19;100.00;99154.11;135913;1273;22514;-70
2023/12/07 09:49:00;;;;;;;;;;;;;;;5.47;100.00;99151.58;135932;1273;22505;-70
2023/12/07 09:52:03;;;;;;;;;;;;;;;5.52;100.00;99146.73;136018;1273;22521;-70
2023/12/07 09:55:05;;;;;;;;;;;;;;;5.60;100.00;99139.88;135962;1273;22536;-70
2023/12/07 09:58:08;;;;;;;;;;;;;;;5.63;100.00;99139.76;135954;1273;22525;-70
2023/12/07 10:01:14;;;;;;;;;;;;;;;5.66;100.00;99139.65;135962;1273;22506;-71
2023/12/07 10:04:18;;;;;;;;;;;;;;;5.73;100.00;99139.78;135888;1273;22503;-70
2023/12/07 10:07:21;;;;;;;;;;;;;;;5.81;100.00;99144.31;85523;1273;1016176;-70
2023/12/07 10:10:25;;;;;;;;;;;;;;;5.61;100.00;99150.93;67918;1273;1016151;-70
2023/12/07 10:13:28;;;;;;;;;;;;;;;5.59;100.00;99151.70;67935;1273;1019096;-69
2023/12/07 10:16:35;;;;;;;;;;;;;;;5.52;100.00;99150.39;67942;1273;1016593;-70
2023/12/07 10:19:37;;;;;;;;;;;;;;;5.46;100.00;99146.79;67936;1274;1016332;-71
2023/12/07 10:22:40;;;;;;;;;;;;;;;5.68;100.00;99143.77;67942;1273;1016355;-71
2023/12/07 10:25:42;;;;;;;;;;;;;;;5.82;100.00;99141.89;67960;1273;1018003;-71
2023/12/07 10:28:46;;;;;;;;;;;;;;;5.99;100.00;99136.59;67910;1274;1016500;-71
2023/12/07 10:31:49;;;;;;;;;;;;;;;6.23;100.00;99137.27;67902;1273;1016580;-70
2023/12/07 10:34:52;;;;;;;;;;;;;;;6.58;100.00;99140.26;67929;1273;1016899;-71
2023/12/07 10:37:54;;;;;;;;;;;;;;;6.91;100.00;99139.27;67959;1274;1016458;-71
2023/12/07 10:40:57;;;;;;;;;;;;;;;6.91;100.00;99141.19;67900;1274;1016486;-71
2023/12/07 10:44:02;;;;;;;;;;;;;;;6.71;100.00;99141.83;67910;1273;1018580;-71
2023/12/07 10:47:05;;;;;;;;;;;;;;;6.71;100.00;99139.02;67890;1273;1016104;-71
2023/12/07 10:50:11;;;;;;;;;;;;;;;6.86;100.00;99137.92;67887;1274;1016488;-71
2023/12/07 10:53:13;;;;;;;;;;;;;;;7.08;100.00;99138.24;67912;1273;1016464;-71
2023/12/07 10:56:16;;;;;;;;;;;;;;;7.43;100.00;99135.71;67941;1274;1016382;-70
2023/12/07 10:59:18;;;;;;;;;;;;;;;7.73;100.00;99138.95;67961;1274;1016123;-71
2023/12/07 11:02:21;;;;;;;;;;;;;;;7.76;100.00;99139.52;67899;1273;1018711;-70
2023/12/07 11:05:25;;;;;;;;;;;;;;;7.66;100.00;99136.30;67898;1273;1018036;-71
2023/12/07 11:08:27;;;;;;;;;;;;;;;7.42;100.00;99132.98;67887;1273;1016304;-70
2023/12/07 11:11:30;;;;;;;;;;;;;;;7.63;100.00;99135.18;67885;1273;1016360;-71
2023/12/07 11:14:33;;;;;;;;;;;;;;;7.72;100.00;99135.85;67936;1273;1016457;-71
2023/12/07 11:17:35;;;;;;;;;;;;;;;7.73;100.00;99136.83;67906;1273;1016121;-70
2023/12/07 11:20:38;;;;;;;;;;;;;;;7.62;100.00;99135.94;67917;1273;1016432;-70
2023/12/07 11:23:41;;;;;;;;;;;;;;;7.34;100.00;99135.59;67929;1273;1016952;-70
2023/12/07 11:26:44;;;;;;;;;;;;;;;7.27;100.00;99139.50;67846;1273;1015894;-71
2023/12/07 11:29:47;;;;;;;;;;;;;;;7.10;100.00;99143.88;67917;1273;1015939;-70
2023/12/07 11:32:50;;;;;;;;;;;;;;;7.07;100.00;99147.31;67912;1274;1016416;-71
2023/12/07 11:35:52;;;;;;;;;;;;;;;7.06;100.00;99142.66;67889;1274;1015725;-70
2023/12/07 11:38:55;;;;;;;;;;;;;;;7.13;100.00;99141.67;67880;1273;1016120;-70
2023/12/07 11:41:57;;;;;;;;;;;;;;;6.92;100.00;99139.41;67938;1274;1016392;-71
2023/12/07 11:45:00;;;;;;;;;;;;;;;6.87;100.00;99135.61;67895;1274;1016437;-70
2023/12/07 11:48:02;;;;;;;;;;;;;;;6.90;100.00;99133.77;67917;1273;1018112;-70
2023/12/07 11:51:05;;;;;;;;;;;;;;;6.75;100.00;99126.52;67900;1274;1016461;-70
2023/12/07 11:54:11;;;;;;;;;;;;;;;6.70;100.00;99130.55;67930;1274;1016404;-70
2023/12/07 11:57:14;;;;;;;;;;;;;;;6.71;100.00;99130.17;67934;1274;1015830;-70
2023/12/07 12:00:16;;;;;;;;;;;;;;;6.76;100.00;99130.85;67887;1274;1016690;-70
2023/12/07 12:03:20;;;;;;;;;;;;;;;6.69;100.00;99128.51;67897;1274;1018154;-70
2023/12/07 12:06:23;;;;;;;;;;;;;;;6.70;100.00;99128.65;67891;1273;1016173;-70
2023/12/07 12:09:25;;;;;;;;;;;;;;;6.55;100.00;99133.58;67897;1274;1016457;-70
2023/12/07 12:12:28;;;;;;;;;;;;;;;6.27;100.00;99134.52;67938;1273;1016977;-70
2023/12/07 12:15:30;;;;;;;;;;;;;;;6.22;100.00;99130.54;67905;1273;1016451;-70
2023/12/07 12:18:33;;;;;;;;;;;;;;;6.25;100.00;99126.75;67905;1274;1016246;-70
2023/12/07 12:21:35;;;;;;;;;;;;;;;6.20;100.00;99130.94;67939;1274;1016354;-70
2023/12/07 12:24:39;;;;;;;;;;;;;;;6.25;100.00;99129.03;67911;1273;1016036;-70
2023/12/07 12:27:42;;;;;;;;;;;;;;;6.10;100.00;99131.34;67919;1273;1016425;-70
2023/12/07 12:30:46;;;;;;;;;;;;;;;6.05;100.00;99128.73;67880;1273;1016842;-71
2023/12/07 12:33:49;;;;;;;;;;;;;;;6.00;100.00;99130.64;67891;1274;1016591;-70
2023/12/07 12:36:52;;;;;;;;;;;;;;;5.99;100.00;99131.89;67904;1274;1016443;-70
2023/12/07 12:39:54;;;;;;;;;;;;;;;5.88;100.00;99133.84;67944;1273;1016367;-71
2023/12/07 12:42:57;;;;;;;;;;;;;;;5.82;100.00;99133.54;67939;1274;1016085;-71
2023/12/07 12:46:00;;;;;;;;;;;;;;;5.69;100.00;99134.52;67901;1273;1016466;-70
2023/12/07 12:49:04;;;;;;;;;;;;;;;5.53;100.00;99134.56;67935;1274;1016323;-70
2023/12/07 12:52:07;;;;;;;;;;;;;;;5.62;100.00;99133.05;67932;1273;1016427;-71
2023/12/07 12:55:11;;;;;;;;;;;;;;;5.60;100.00;99138.52;67892;1273;1016202;-71
2023/12/07 12:58:13;;;;;;;;;;;;;;;5.59;100.00;99136.79;67932;1273;1016379;-71
2023/12/07 13:01:18;;;;;;;;;;;;;;;5.46;100.00;99145.02;67936;1273;1016379;-70
2023/12/07 13:04:24;;;;;;;;;;;;;;;5.36;100.00;99151.66;67913;1274;1016382;-70
2023/12/07 13:07:26;;;;;;;;;;;;;;;5.14;100.00;99152.04;67884;1274;1018246;-70
2023/12/07 13:10:29;;;;;;;;;;;;;;;5.09;100.00;99153.94;67923;1273;1016195;-71
2023/12/07 13:13:31;;;;;;;;;;;;;;;5.15;100.00;99156.70;67928;1273;1016880;-71
2023/12/07 13:16:40;;;;;;;;;;;;;;;5.38;100.00;99158.68;67875;1274;1016926;-71
2023/12/07 13:19:42;;;;;;;;;;;;;;;5.59;100.00;99156.41;67908;1273;1016825;-71
2023/12/07 13:22:46;;;;;;;;;;;;;;;5.63;100.00;99160.60;67889;1274;1016310;-70
2023/12/07 13:25:49;;;;;;;;;;;;;;;5.49;100.00;99161.60;67891;1274;1015890;-71
2023/12/07 13:28:52;;;;;;;;;;;;;;;5.31;100.00;99162.39;67915;1273;1016470;-71
2023/12/07 13:31:55;;;;;;;;;;;;;;;5.24;100.00;99162.64;67903;1273;1016461;-71
2023/12/07 13:34:57;;;;;;;;;;;;;;;5.20;100.00;99165.52;67911;1273;1016461;-71
2023/12/07 13:38:00;;;;;;;;;;;;;;;5.12;100.00;99170.14;67909;1273;1016434;-71
2023/12/07 13:41:03;;;;;;;;;;;;;;;5.12;100.00;99171.85;67899;1274;1016439;-71
2023/12/07 13:44:05;;;;;;;;;;;;;;;5.09;100.00;99170.59;67891;1274;1016864;-70
2023/12/07 13:47:09;;;;;;;;;;;;;;;5.08;100.00;99172.70;67901;1274;1016427;-71
2023/12/07 13:50:12;;;;;;;;;;;;;;;5.06;100.00;99176.39;67947;1273;1016400;-71
2023/12/07 13:53:15;;;;;;;;;;;;;;;5.08;100.00;99179.30;67884;1274;1016219;-70
2023/12/07 13:56:17;;;;;;;;;;;;;;;5.06;100.00;99180.37;67919;1274;1016434;-71
2023/12/07 13:59:22;;;;;;;;;;;;;;;4.91;100.00;99181.56;67890;1274;1018664;-70
2023/12/07 14:02:28;;;;;;;;;;;;;;;4.80;100.00;99178.44;67961;1273;1016259;-70
2023/12/07 14:05:31;;;;;;;;;;;;;;;4.75;100.00;99177.58;67877;1274;1016213;-71
2023/12/07 14:08:34;;;;;;;;;;;;;;;4.70;100.00;99176.48;67943;1273;1016272;-70
2023/12/07 14:11:36;;;;;;;;;;;;;;;4.62;100.00;99176.59;67909;1274;1016699;-70
2023/12/07 14:14:39;;;;;;;;;;;;;;;4.47;100.00;99175.80;67895;1274;1016116;-70
2023/12/07 14:17:41;;;;;;;;;;;;;;;4.33;100.00;99179.53;67935;1274;1016533;-71
2023/12/07 14:20:47;;;;;;;;;;;;;;;4.19;100.00;99183.91;67905;1273;1015972;-70
2023/12/07 14:23:49;;;;;;;;;;;;;;;4.18;100.00;99185.86;67890;1274;1016491;-70
2023/12/07 14:26:52;;;;;;;;;;;;;;;4.12;100.00;99192.09;67896;1273;1016352;-71
2023/12/07 14:29:55;;;;;;;;;;;;;;;4.04;100.00;99192.13;67905;1273;1016502;-71
2023/12/07 14:32:58;;;;;;;;;;;;;;;3.99;100.00;99200.05;67890;1273;1016279;-71
2023/12/07 14:36:01;;;;;;;;;;;;;;;3.83;100.00;99199.65;67862;1274;1016478;-70
2023/12/07 14:39:06;;;;;;;;;;;;;;;3.67;100.00;99208.38;67922;1274;1016045;-70
2023/12/07 14:42:08;;;;;;;;;;;;;;;3.50;100.00;99209.69;67898;1274;1016388;-70
2023/12/07 14:45:11;;;;;;;;;;;;;;;3.43;100.00;99212.28;67885;1274;1015802;-70
2023/12/07 14:48:14;;;;;;;;;;;;;;;3.32;100.00;99217.21;67917;1274;1016359;-71
2023/12/07 14:51:16;;;;;;;;;;;;;;;3.11;100.00;99217.73;67927;1273;1016434;-70
2023/12/07 14:54:19;;;;;;;;;;;;;;;3.07;100.00;99219.06;67864;1273;1016028;-71
2023/12/07 14:57:22;;;;;;;;;;;;;;;3.08;100.00;99220.40;67867;1274;1016388;-70
2023/12/07 15:00:25;;;;;;;;;;;;;;;3.11;100.00;99218.78;67898;1273;1016484;-70
2023/12/07 15:03:28;;;;;;;;;;;;;;;3.07;100.00;99218.17;67905;1273;1016830;-70
2023/12/07 15:06:31;;;;;;;;;;;;;;;3.09;100.00;99222.61;67903;1273;1016514;-70
2023/12/07 15:09:35;;;;;;;;;;;;;;;3.03;100.00;99225.35;67864;1274;1016224;-70
2023/12/07 15:12:38;;;;;;;;;;;;;;;2.98;100.00;99225.14;67989;1274;1016303;-71
2023/12/07 15:15:41;;;;;;;;;;;;;;;2.93;100.00;99228.02;67881;1273;1016299;-71
2023/12/07 15:18:46;;;;;;;;;;;;;;;2.91;100.00;99230.65;67910;1274;1016447;-71
2023/12/07 15:21:50;;;;;;;;;;;;;;;2.91;100.00;99240.16;67887;1273;1016438;-71
2023/12/07 15:24:53;;;;;;;;;;;;;;;2.84;100.00;99241.70;67884;1274;1016267;-70
2023/12/07 15:27:55;;;;;;;;;;;;;;;2.87;100.00;99241.45;67883;1273;1018684;-70
2023/12/07 15:30:58;;;;;;;;;;;;;;;2.91;100.00;99237.73;67897;1274;1016285;-70
2023/12/07 15:34:01;;;;;;;;;;;;;;;2.92;100.00;99233.58;67883;1274;1018319;-71